Time;durP1;ratioP1;P1;durP2;ratioP2;P2;SDS_P1;SDS_P2;PMS_P1;PMS_P2;Temp;Humidity;BMP_temperature;BMP_pressure;BME280_temperature;BME280_humidity;BME280_pressure;Samples;Min_cycle;Max_cycle;Signal;HPM_P1;HPM_P2
2022/05/01 00:01:16;;;;;;;;;;;;;;;19.06;38.83;99882.03;4490367;31;33844;-66
2022/05/01 00:03:45;;;;;;;;;;;;;;;18.99;39.31;99874.75;4483995;31;31712;-67
2022/05/01 00:06:13;;;;;;;;;;;;;;;18.91;39.82;99881.00;4484928;31;35188;-67
2022/05/01 00:08:41;;;;;;;;;;;;;;;18.97;39.93;99874.06;4492981;31;33182;-66
2022/05/01 00:11:10;;;;;;;;;;;;;;;18.79;40.55;99882.31;4482831;32;33945;-69
2022/05/01 00:13:43;;;;;;;;;;;;;;;18.85;40.85;99879.78;4495009;31;32582;-68
2022/05/01 00:16:11;;;;;;;;;;;;;;;18.90;40.64;99875.72;4491757;31;33128;-68
2022/05/01 00:18:40;;;;;;;;;;;;;;;18.93;40.64;99875.41;4488592;31;35373;-65
2022/05/01 00:21:08;;;;;;;;;;;;;;;19.00;40.37;99876.44;4485141;31;33940;-67
2022/05/01 00:23:36;;;;;;;;;;;;;;;19.04;40.75;99872.41;4482777;31;33192;-67
2022/05/01 00:26:04;;;;;;;;;;;;;;;19.07;40.91;99875.62;4483791;31;33980;-68
2022/05/01 00:28:32;;;;;;;;;;;;;;;19.03;41.41;99878.81;4485084;31;34484;-67
2022/05/01 00:31:00;;;;;;;;;;;;;;;19.05;41.09;99871.37;4485215;31;35187;-68
2022/05/01 00:36:26;;;;;;;;;;;;;;;19.07;39.84;99870.19;4486311;31;34039;-69
2022/05/01 00:39:02;;;;;;;;;;;;;;;18.97;40.02;99877.63;4497373;31;34205;-68
2022/05/01 00:41:32;;;;;;;;;;;;;;;18.88;40.07;99875.06;4485466;31;33637;-68
2022/05/01 00:44:06;;;;;;;;;;;;;;;18.92;40.41;99877.28;4483403;31;33633;-68
2022/05/01 00:46:35;;;;;;;;;;;;;;;18.93;40.95;99878.13;4482153;32;35152;-67
2022/05/01 00:49:05;;;;;;;;;;;;;;;18.99;40.39;99872.88;4482980;32;34168;-67
2022/05/01 00:51:34;;;;;;;;;;;;;;;18.77;40.05;99874.34;4491391;31;34607;-68
2022/05/01 00:54:02;;;;;;;;;;;;;;;18.35;39.49;99877.84;4485318;31;33164;-68
2022/05/01 00:56:30;;;;;;;;;;;;;;;18.82;40.11;99877.41;4490207;31;34228;-70
2022/05/01 00:58:58;;;;;;;;;;;;;;;18.98;39.47;99870.34;4492516;31;35392;-68
2022/05/01 01:01:26;;;;;;;;;;;;;;;18.92;40.10;99879.13;4483394;31;33856;-70
2022/05/01 01:03:54;;;;;;;;;;;;;;;19.11;39.55;99867.16;4488464;31;32222;-67
2022/05/01 01:06:22;;;;;;;;;;;;;;;19.16;38.96;99868.31;4487346;31;33772;-69
2022/05/01 01:08:50;;;;;;;;;;;;;;;19.15;39.64;99877.50;4489569;31;32820;-70
2022/05/01 01:11:19;;;;;;;;;;;;;;;19.11;40.38;99875.28;4487295;31;34222;-69
2022/05/01 01:13:47;;;;;;;;;;;;;;;19.13;40.71;99871.37;4490610;31;33546;-66
2022/05/01 01:16:16;;;;;;;;;;;;;;;19.07;41.05;99874.78;4470142;31;32802;-67
2022/05/01 01:18:47;;;;;;;;;;;;;;;18.96;41.34;99883.22;4486691;31;34144;-71
2022/05/01 01:21:24;;;;;;;;;;;;;;;19.05;41.16;99877.63;4482643;31;33935;-71
2022/05/01 01:23:59;;;;;;;;;;;;;;;18.88;41.43;99884.03;4485759;31;32868;-70
2022/05/01 01:26:37;;;;;;;;;;;;;;;18.76;41.94;99879.94;4472852;31;34724;-69
2022/05/01 01:31:40;;;;;;;;;;;;;;;18.87;41.37;99878.78;4478647;31;34650;-69
2022/05/01 01:31:55;;;;;;;;;;;;;;;18.80;41.77;99874.00;4482434;32;32990;-69
2022/05/01 01:34:28;;;;;;;;;;;;;;;18.70;41.79;99881.41;4483719;31;33687;-70
2022/05/01 01:36:58;;;;;;;;;;;;;;;18.58;42.22;99875.41;4471788;32;32308;-70
2022/05/01 01:39:28;;;;;;;;;;;;;;;18.72;42.29;99874.00;4496166;31;35284;-71
2022/05/01 01:41:57;;;;;;;;;;;;;;;18.65;42.12;99872.94;4470792;31;32950;-70
2022/05/01 01:44:29;;;;;;;;;;;;;;;18.78;41.61;99869.75;4468938;31;32204;-69
2022/05/01 01:46:59;;;;;;;;;;;;;;;18.79;40.56;99872.31;4490445;31;34193;-69
2022/05/01 01:49:29;;;;;;;;;;;;;;;18.79;41.67;99874.19;4482500;32;32819;-70
2022/05/01 01:51:59;;;;;;;;;;;;;;;18.82;41.91;99872.00;4494400;31;32915;-70
2022/05/01 01:54:28;;;;;;;;;;;;;;;18.77;42.10;99874.34;4493088;31;33166;-71
2022/05/01 01:56:59;;;;;;;;;;;;;;;18.65;42.35;99870.22;4480567;31;33897;-70
2022/05/01 01:59:27;;;;;;;;;;;;;;;18.79;42.21;99875.03;4483637;31;32913;-71
2022/05/01 02:01:56;;;;;;;;;;;;;;;18.73;42.60;99872.13;4481368;31;34161;-70
2022/05/01 02:04:25;;;;;;;;;;;;;;;18.66;42.82;99873.78;4485292;31;31845;-71
2022/05/01 02:06:54;;;;;;;;;;;;;;;18.71;42.57;99872.25;4492745;31;33077;-71
2022/05/01 02:09:22;;;;;;;;;;;;;;;18.56;42.59;99873.91;4488042;31;35196;-71
2022/05/01 02:11:53;;;;;;;;;;;;;;;18.51;42.83;99863.53;4484926;31;32930;-70
2022/05/01 02:14:22;;;;;;;;;;;;;;;18.33;42.95;99863.63;4485063;31;32484;-71
2022/05/01 02:16:50;;;;;;;;;;;;;;;18.52;43.31;99858.94;4482267;31;32377;-70
2022/05/01 02:19:19;;;;;;;;;;;;;;;18.65;42.82;99863.91;4494441;31;32902;-70
2022/05/01 02:21:47;;;;;;;;;;;;;;;18.57;42.99;99856.63;4475875;32;34222;-72
2022/05/01 02:24:15;;;;;;;;;;;;;;;18.43;43.38;99857.25;4483104;31;34210;-68
2022/05/01 02:26:44;;;;;;;;;;;;;;;18.56;42.91;99858.47;4484771;31;34203;-70
2022/05/01 02:29:13;;;;;;;;;;;;;;;18.67;42.81;99862.75;4490683;31;35733;-70
2022/05/01 02:31:43;;;;;;;;;;;;;;;18.59;42.03;99857.31;4487253;31;33088;-67
2022/05/01 02:34:12;;;;;;;;;;;;;;;18.72;41.71;99864.97;4481312;31;32138;-68
2022/05/01 02:36:40;;;;;;;;;;;;;;;18.49;40.93;99860.16;4488610;31;34289;-68
2022/05/01 02:39:08;;;;;;;;;;;;;;;18.74;41.00;99865.69;4494849;31;34304;-68
2022/05/01 02:41:37;;;;;;;;;;;;;;;18.78;40.38;99862.50;4489909;31;34837;-68
2022/05/01 02:44:06;;;;;;;;;;;;;;;18.71;40.74;99855.13;4492914;31;34273;-68
2022/05/01 02:46:35;;;;;;;;;;;;;;;18.75;41.65;99865.53;4469744;32;32686;-71
2022/05/01 02:49:05;;;;;;;;;;;;;;;18.76;41.19;99863.66;4487552;31;34437;-68
2022/05/01 02:51:34;;;;;;;;;;;;;;;18.74;41.12;99863.81;4485650;31;34243;-68
2022/05/01 02:54:04;;;;;;;;;;;;;;;18.83;41.32;99872.84;4483888;31;33566;-68
2022/05/01 02:56:32;;;;;;;;;;;;;;;18.85;41.10;99863.53;4490001;31;32980;-68
2022/05/01 02:59:03;;;;;;;;;;;;;;;18.84;40.86;99864.56;4493133;31;34387;-68
2022/05/01 03:01:36;;;;;;;;;;;;;;;18.83;41.40;99864.69;4483958;31;32840;-68
2022/05/01 03:04:05;;;;;;;;;;;;;;;18.82;41.07;99861.13;4492977;31;34305;-68
2022/05/01 03:06:34;;;;;;;;;;;;;;;18.61;40.61;99860.69;4493462;31;35040;-73
2022/05/01 03:09:04;;;;;;;;;;;;;;;18.41;40.49;99853.84;4486037;31;34031;-73
2022/05/01 03:11:35;;;;;;;;;;;;;;;18.33;40.26;99854.63;4485314;31;33935;-73
2022/05/01 03:14:09;;;;;;;;;;;;;;;18.50;39.24;99848.28;4469938;31;32124;-73
2022/05/01 03:16:39;;;;;;;;;;;;;;;18.70;40.63;99856.16;4483236;31;34137;-71
2022/05/01 03:22:11;;;;;;;;;;;;;;;18.73;40.27;99861.28;4492739;31;34171;-75
2022/05/01 03:24:41;;;;;;;;;;;;;;;18.65;39.33;99875.62;4493778;31;32226;-72
2022/05/01 03:27:10;;;;;;;;;;;;;;;18.55;39.00;99875.72;4484830;31;33105;-73
2022/05/01 03:29:39;;;;;;;;;;;;;;;18.49;38.60;99868.28;4497107;31;34235;-71
2022/05/01 03:32:09;;;;;;;;;;;;;;;18.72;37.24;99870.41;4481514;31;34007;-72
2022/05/01 03:34:39;;;;;;;;;;;;;;;18.73;36.75;99877.56;4481968;31;33691;-72
2022/05/01 03:37:09;;;;;;;;;;;;;;;18.81;36.17;99878.44;4487684;31;34070;-69
2022/05/01 03:39:38;;;;;;;;;;;;;;;18.67;35.40;99879.00;4481937;31;34603;-71
2022/05/01 03:42:07;;;;;;;;;;;;;;;18.63;35.38;99880.38;4492361;31;33985;-70
2022/05/01 03:44:37;;;;;;;;;;;;;;;18.75;35.03;99880.97;4483920;31;32719;-70
2022/05/01 03:47:09;;;;;;;;;;;;;;;18.78;35.52;99881.47;4477418;32;33634;-70
2022/05/01 03:49:47;;;;;;;;;;;;;;;18.55;35.71;99880.31;4483351;31;34186;-71
2022/05/01 03:52:16;;;;;;;;;;;;;;;18.75;36.20;99878.25;4489370;31;34009;-71
2022/05/01 03:54:45;;;;;;;;;;;;;;;18.69;36.13;99882.41;4488269;31;32235;-70
2022/05/01 03:57:13;;;;;;;;;;;;;;;18.70;36.24;99884.09;4486196;31;34873;-70
2022/05/01 03:59:42;;;;;;;;;;;;;;;18.66;36.76;99881.91;4495264;31;34362;-70
2022/05/01 04:02:11;;;;;;;;;;;;;;;18.69;37.21;99877.00;4485039;31;35083;-73
2022/05/01 04:04:39;;;;;;;;;;;;;;;18.57;37.71;99887.28;4483653;31;33982;-71
2022/05/01 04:07:08;;;;;;;;;;;;;;;18.33;37.86;99890.72;4497495;31;34742;-70
2022/05/01 04:09:37;;;;;;;;;;;;;;;17.92;38.19;99893.19;4491708;31;35639;-70
2022/05/01 04:12:06;;;;;;;;;;;;;;;17.89;38.07;99896.19;4485331;31;34130;-70
2022/05/01 04:14:34;;;;;;;;;;;;;;;18.35;37.26;99901.37;4467013;31;33396;-69
2022/05/01 04:17:03;;;;;;;;;;;;;;;18.63;36.70;99900.19;4481233;32;34936;-69
2022/05/01 04:19:32;;;;;;;;;;;;;;;18.74;36.60;99890.09;4480587;32;33996;-70
2022/05/01 04:22:00;;;;;;;;;;;;;;;18.38;37.16;99899.22;4479959;31;32742;-72
2022/05/01 04:24:29;;;;;;;;;;;;;;;18.70;36.83;99894.09;4481056;31;33344;-73
2022/05/01 04:26:58;;;;;;;;;;;;;;;18.45;36.81;99894.00;4484950;31;35010;-69
2022/05/01 04:29:36;;;;;;;;;;;;;;;17.70;38.78;99904.47;4481542;31;34208;-69
2022/05/01 04:32:05;;;;;;;;;;;;;;;17.88;38.12;99904.47;4490549;31;33996;-71
2022/05/01 04:34:34;;;;;;;;;;;;;;;18.14;37.35;99905.34;4492306;31;32977;-68
2022/05/01 04:37:05;;;;;;;;;;;;;;;18.39;37.37;99905.47;4494216;31;34471;-69
2022/05/01 04:39:34;;;;;;;;;;;;;;;18.27;37.29;99901.37;4493581;31;35259;-69
2022/05/01 04:42:02;;;;;;;;;;;;;;;18.27;37.76;99907.63;4494328;31;32732;-68
2022/05/01 04:44:32;;;;;;;;;;;;;;;18.44;37.48;99900.44;4498154;31;33099;-68
2022/05/01 04:47:01;;;;;;;;;;;;;;;18.04;38.26;99907.31;4484065;31;34153;-67
2022/05/01 04:49:33;;;;;;;;;;;;;;;18.37;37.56;99907.50;4483195;31;34115;-68
2022/05/01 04:52:02;;;;;;;;;;;;;;;17.89;38.73;99904.31;4488522;31;33908;-69
2022/05/01 04:54:32;;;;;;;;;;;;;;;18.08;37.98;99905.12;4486929;31;33091;-71
2022/05/01 04:57:07;;;;;;;;;;;;;;;18.08;37.98;99910.56;4494905;31;34217;-67
2022/05/01 04:59:37;;;;;;;;;;;;;;;17.66;38.77;99914.78;4491253;31;34389;-68
2022/05/01 05:02:06;;;;;;;;;;;;;;;17.17;39.45;99910.72;4495579;31;32969;-68
2022/05/01 05:04:37;;;;;;;;;;;;;;;18.06;38.53;99913.41;4489431;31;32113;-68
2022/05/01 05:07:06;;;;;;;;;;;;;;;18.35;38.05;99918.50;4486229;31;34253;-68
2022/05/01 05:12:22;;;;;;;;;;;;;;;18.24;38.28;99910.66;4488445;31;34396;-68
2022/05/01 05:14:55;;;;;;;;;;;;;;;18.48;37.83;99914.50;4493332;31;32420;-67
2022/05/01 05:17:24;;;;;;;;;;;;;;;18.27;38.41;99921.19;4491331;31;34000;-70
2022/05/01 05:19:54;;;;;;;;;;;;;;;18.27;38.54;99925.75;4484237;31;32800;-68
2022/05/01 05:22:29;;;;;;;;;;;;;;;18.51;37.66;99922.31;4498359;31;33642;-68
2022/05/01 05:24:59;;;;;;;;;;;;;;;18.41;37.58;99922.44;4484055;31;34479;-68
2022/05/01 05:27:28;;;;;;;;;;;;;;;18.63;37.39;99926.44;4485643;31;34844;-68
2022/05/01 05:29:57;;;;;;;;;;;;;;;18.69;37.45;99923.09;4485374;31;34385;-68
2022/05/01 05:32:26;;;;;;;;;;;;;;;18.68;37.40;99926.78;4497073;31;35112;-68
2022/05/01 05:34:55;;;;;;;;;;;;;;;18.79;37.16;99926.53;4488865;31;34115;-78
2022/05/01 05:37:25;;;;;;;;;;;;;;;18.90;37.10;99929.97;4474321;31;33049;-69
2022/05/01 05:39:54;;;;;;;;;;;;;;;18.88;37.34;99927.44;4482942;31;35039;-69
2022/05/01 05:42:23;;;;;;;;;;;;;;;18.51;38.16;99934.00;4490327;31;32855;-69
2022/05/01 05:44:52;;;;;;;;;;;;;;;18.37;38.16;99930.03;4480814;32;33333;-70
2022/05/01 05:47:22;;;;;;;;;;;;;;;18.55;38.07;99931.81;4489749;31;33015;-74
2022/05/01 05:49:50;;;;;;;;;;;;;;;19.13;36.88;99935.62;4466881;32;35835;-69
2022/05/01 05:52:22;;;;;;;;;;;;;;;18.86;37.78;99940.31;4480814;31;33970;-72
2022/05/01 05:54:51;;;;;;;;;;;;;;;18.51;37.95;99939.41;4486200;31;32236;-69
2022/05/01 05:57:19;;;;;;;;;;;;;;;18.49;37.96;99938.75;4493669;31;34841;-69
2022/05/01 05:59:48;;;;;;;;;;;;;;;18.75;37.49;99949.59;4482897;31;34271;-69
2022/05/01 06:02:19;;;;;;;;;;;;;;;17.93;38.80;99946.31;4486636;31;33796;-70
2022/05/01 06:04:48;;;;;;;;;;;;;;;18.26;38.84;99953.81;4482609;31;32206;-69
2022/05/01 06:07:16;;;;;;;;;;;;;;;18.21;39.21;99946.19;4488153;31;35603;-73
2022/05/01 06:09:48;;;;;;;;;;;;;;;18.17;39.08;99952.94;4481263;31;34253;-68
2022/05/01 06:12:16;;;;;;;;;;;;;;;17.99;39.10;99963.81;4486546;31;33816;-68
2022/05/01 06:14:45;;;;;;;;;;;;;;;17.97;38.95;99960.38;4492806;31;32423;-72
2022/05/01 06:17:13;;;;;;;;;;;;;;;17.82;39.35;99954.69;4481577;31;34222;-68
2022/05/01 06:19:42;;;;;;;;;;;;;;;18.46;38.29;99954.44;4482485;31;33199;-68
2022/05/01 06:22:11;;;;;;;;;;;;;;;18.21;39.53;99962.44;4491488;31;35391;-71
2022/05/01 06:24:39;;;;;;;;;;;;;;;18.36;38.30;99962.69;4483257;31;33848;-68
2022/05/01 06:27:07;;;;;;;;;;;;;;;17.63;40.33;99957.53;4487557;31;35190;-70
2022/05/01 06:29:36;;;;;;;;;;;;;;;18.29;39.28;99965.19;4497922;31;33942;-67
2022/05/01 06:32:04;;;;;;;;;;;;;;;17.81;39.78;99957.53;4469346;32;34217;-73
2022/05/01 06:34:35;;;;;;;;;;;;;;;17.88;39.53;99961.31;4482822;31;33280;-68
2022/05/01 06:37:03;;;;;;;;;;;;;;;18.18;39.42;99957.34;4476643;31;35235;-68
2022/05/01 06:39:32;;;;;;;;;;;;;;;18.24;39.54;99964.84;4467704;31;33521;-67
2022/05/01 06:42:00;;;;;;;;;;;;;;;18.53;39.23;99959.09;4472936;31;33961;-68
2022/05/01 06:44:29;;;;;;;;;;;;;;;17.96;39.75;99963.28;4483012;31;33771;-67
2022/05/01 06:46:57;;;;;;;;;;;;;;;18.83;38.12;99975.88;4484150;31;35218;-67
2022/05/01 06:49:26;;;;;;;;;;;;;;;18.61;38.44;99971.84;4480192;31;34494;-68
2022/05/01 06:51:54;;;;;;;;;;;;;;;19.06;37.74;99973.44;4487369;31;33060;-73
2022/05/01 06:54:27;;;;;;;;;;;;;;;19.18;37.96;99974.00;4485862;31;33719;-70
2022/05/01 06:57:00;;;;;;;;;;;;;;;19.12;38.20;99969.22;4472918;31;33969;-69
2022/05/01 06:59:29;;;;;;;;;;;;;;;18.97;38.59;99974.41;4482519;32;33056;-68
2022/05/01 07:01:57;;;;;;;;;;;;;;;19.34;38.15;99967.75;4483832;31;34471;-68
2022/05/01 07:04:27;;;;;;;;;;;;;;;19.71;37.06;99961.91;4487716;31;33285;-68
2022/05/01 07:06:59;;;;;;;;;;;;;;;19.27;38.06;99964.88;4490109;31;32852;-68
2022/05/01 07:09:32;;;;;;;;;;;;;;;18.62;39.66;99968.13;4485364;31;34907;-67
2022/05/01 07:12:03;;;;;;;;;;;;;;;19.13;38.53;99960.06;4488351;31;34222;-70
2022/05/01 07:14:40;;;;;;;;;;;;;;;19.48;37.75;99961.66;4482747;32;32075;-67
2022/05/01 07:17:14;;;;;;;;;;;;;;;18.96;38.34;99960.00;4479026;31;33798;-67
2022/05/01 07:19:45;;;;;;;;;;;;;;;18.65;39.50;99954.25;4487904;31;33022;-69
2022/05/01 07:22:19;;;;;;;;;;;;;;;19.23;38.50;99953.50;4489669;31;34016;-67
2022/05/01 07:24:56;;;;;;;;;;;;;;;18.73;39.61;99951.59;4483308;31;34282;-71
2022/05/01 07:27:34;;;;;;;;;;;;;;;18.52;39.82;99956.53;4489034;31;34295;-67
2022/05/01 07:30:10;;;;;;;;;;;;;;;19.33;38.61;99953.34;4484001;31;34382;-68
2022/05/01 07:32:39;;;;;;;;;;;;;;;19.34;39.43;99946.06;4487073;31;32864;-71
2022/05/01 07:35:11;;;;;;;;;;;;;;;19.69;37.95;99944.94;4482684;31;33159;-73
2022/05/01 07:37:44;;;;;;;;;;;;;;;19.51;38.65;99953.19;4484253;31;35320;-67
2022/05/01 07:40:24;;;;;;;;;;;;;;;20.15;38.38;99943.38;4484155;31;35230;-70
2022/05/01 07:42:55;;;;;;;;;;;;;;;19.99;38.08;99949.69;4485934;31;33849;-68
2022/05/01 07:45:29;;;;;;;;;;;;;;;20.16;38.10;99946.94;4484832;31;33279;-68
2022/05/01 07:48:03;;;;;;;;;;;;;;;20.75;36.46;99943.97;4485163;31;33802;-68
2022/05/01 07:50:38;;;;;;;;;;;;;;;20.88;36.35;99945.09;4496540;31;34356;-69
2022/05/01 07:53:13;;;;;;;;;;;;;;;21.17;35.92;99940.87;4484328;31;35212;-68
2022/05/01 07:55:48;;;;;;;;;;;;;;;21.44;35.63;99936.84;4483665;31;32024;-71
2022/05/01 07:58:23;;;;;;;;;;;;;;;21.72;35.41;99939.03;4469840;31;32786;-70
2022/05/01 08:01:02;;;;;;;;;;;;;;;20.97;35.71;99929.59;4497695;31;33312;-70
2022/05/01 08:06:31;;;;;;;;;;;;;;;21.40;35.86;99932.78;4483931;31;33045;-68
2022/05/01 08:09:05;;;;;;;;;;;;;;;21.87;35.43;99937.22;4485711;31;33912;-70
2022/05/01 08:11:40;;;;;;;;;;;;;;;22.14;34.34;99929.47;4487608;31;32791;-67
2022/05/01 08:14:15;;;;;;;;;;;;;;;22.39;34.45;99922.75;4490533;31;32158;-68
2022/05/01 08:16:45;;;;;;;;;;;;;;;21.72;34.69;99920.81;4497952;31;32438;-68
2022/05/01 08:22:12;;;;;;;;;;;;;;;22.40;34.05;99921.72;4486087;31;33038;-67
2022/05/01 08:24:45;;;;;;;;;;;;;;;21.96;34.22;99919.75;4485771;31;34120;-68
2022/05/01 08:27:24;;;;;;;;;;;;;;;22.37;31.92;99913.91;4479665;31;33234;-67
2022/05/01 08:29:55;;;;;;;;;;;;;;;22.86;32.43;99924.28;4492233;31;32824;-70
2022/05/01 08:32:27;;;;;;;;;;;;;;;22.78;32.40;99922.47;4492603;31;34155;-72
2022/05/01 08:35:00;;;;;;;;;;;;;;;22.51;32.49;99921.28;4488391;31;34422;-68
2022/05/01 08:37:35;;;;;;;;;;;;;;;22.27;31.77;99921.53;4485364;31;33559;-68
2022/05/01 08:40:10;;;;;;;;;;;;;;;21.69;32.96;99917.59;4484928;31;34049;-68
2022/05/01 08:42:41;;;;;;;;;;;;;;;22.53;31.90;99908.28;4486824;31;34358;-68
2022/05/01 08:45:12;;;;;;;;;;;;;;;22.32;31.48;99911.75;4475703;32;33438;-68
2022/05/01 08:47:57;;;;;;;;;;;;;;;22.95;31.50;99912.25;4472545;31;33123;-68
2022/05/01 08:50:29;;;;;;;;;;;;;;;22.67;31.50;99909.31;4474672;31;33616;-67
2022/05/01 08:53:06;;;;;;;;;;;;;;;23.31;31.00;99905.09;4500264;31;33278;-69
2022/05/01 08:55:46;;;;;;;;;;;;;;;23.29;29.40;99901.72;4472064;32;33600;-68
2022/05/01 08:58:20;;;;;;;;;;;;;;;23.55;29.09;99904.72;4481022;31;32919;-69
2022/05/01 09:00:55;;;;;;;;;;;;;;;23.52;27.99;99904.25;4490851;31;33048;-68
2022/05/01 09:03:30;;;;;;;;;;;;;;;22.86;29.45;99907.91;4485741;31;35492;-71
2022/05/01 09:06:05;;;;;;;;;;;;;;;22.94;29.70;99890.59;4484258;31;34000;-69
2022/05/01 09:08:40;;;;;;;;;;;;;;;23.70;28.71;99882.81;4487656;31;32978;-69
2022/05/01 09:14:12;;;;;;;;;;;;;;;23.80;28.73;99891.53;4498816;31;32481;-70
2022/05/01 09:17:06;;;;;;;;;;;;;;;23.73;28.21;99884.31;4486937;31;33955;-69
2022/05/01 09:19:43;;;;;;;;;;;;;;;24.04;27.35;99892.13;4486939;31;33470;-69
2022/05/01 09:22:16;;;;;;;;;;;;;;;23.89;27.39;99887.63;4493214;31;35298;-68
2022/05/01 09:24:54;;;;;;;;;;;;;;;24.01;28.01;99879.69;4499422;31;34179;-68
2022/05/01 09:27:32;;;;;;;;;;;;;;;24.56;27.57;99882.62;4487098;31;33206;-73
2022/05/01 09:30:08;;;;;;;;;;;;;;;23.98;28.58;99880.13;4487054;31;32268;-69
2022/05/01 09:32:39;;;;;;;;;;;;;;;24.24;28.18;99879.47;4493163;31;32859;-68
2022/05/01 09:35:16;;;;;;;;;;;;;;;24.03;26.91;99874.03;4482673;31;33239;-71
2022/05/01 09:37:48;;;;;;;;;;;;;;;23.66;27.77;99874.16;4483391;31;33274;-69
2022/05/01 09:40:32;;;;;;;;;;;;;;;24.27;26.60;99883.66;4488789;31;33549;-69
2022/05/01 09:43:04;;;;;;;;;;;;;;;24.81;25.92;99885.69;4495183;31;33966;-69
2022/05/01 09:45:35;;;;;;;;;;;;;;;24.41;26.23;99877.28;4469787;31;33428;-68
2022/05/01 09:48:21;;;;;;;;;;;;;;;24.56;27.00;99877.16;4482823;32;32922;-68
2022/05/01 09:50:50;;;;;;;;;;;;;;;24.87;26.14;99862.97;4484706;31;33059;-68
2022/05/01 09:53:19;;;;;;;;;;;;;;;24.53;27.43;99880.31;4484769;31;32958;-68
2022/05/01 09:56:01;;;;;;;;;;;;;;;24.61;28.12;99867.28;4469171;32;34455;-68
2022/05/01 09:58:33;;;;;;;;;;;;;;;24.90;27.88;99869.94;4485404;31;33077;-71
2022/05/01 10:01:15;;;;;;;;;;;;;;;25.10;26.00;99862.63;4488294;31;33353;-69
2022/05/01 10:03:47;;;;;;;;;;;;;;;24.99;25.95;99864.06;4479359;31;33646;-68
2022/05/01 10:06:24;;;;;;;;;;;;;;;24.12;27.19;99856.44;4488938;31;33550;-72
2022/05/01 10:08:54;;;;;;;;;;;;;;;24.39;25.68;99863.75;4487983;31;32815;-69
2022/05/01 10:11:26;;;;;;;;;;;;;;;24.80;25.08;99852.00;4468447;31;32249;-71
2022/05/01 10:13:57;;;;;;;;;;;;;;;25.15;25.52;99845.62;4487794;31;34063;-69
2022/05/01 10:16:26;;;;;;;;;;;;;;;25.31;26.43;99851.53;4500180;31;35539;-70
2022/05/01 10:18:59;;;;;;;;;;;;;;;25.39;25.60;99844.16;4482265;31;32733;-68
2022/05/01 10:21:50;;;;;;;;;;;;;;;24.98;25.69;99837.75;4485956;31;32843;-68
2022/05/01 10:24:20;;;;;;;;;;;;;;;25.02;26.15;99836.28;4497423;31;32844;-70
2022/05/01 10:26:54;;;;;;;;;;;;;;;25.73;25.37;99843.16;4489704;31;34104;-69
2022/05/01 10:29:36;;;;;;;;;;;;;;;24.61;24.96;99841.81;4494584;31;35538;-69
2022/05/01 10:32:25;;;;;;;;;;;;;;;24.49;25.44;99835.22;4490399;31;32235;-69
2022/05/01 10:35:36;;;;;;;;;;;;;;;25.58;24.44;99839.78;4494428;31;33424;-69
2022/05/01 10:38:17;;;;;;;;;;;;;;;26.31;22.65;99837.84;4491046;31;33005;-68
2022/05/01 10:40:49;;;;;;;;;;;;;;;26.05;22.87;99841.47;4470949;31;34965;-69
2022/05/01 10:43:28;;;;;;;;;;;;;;;24.98;23.71;99836.91;4474452;31;33215;-68
2022/05/01 10:46:05;;;;;;;;;;;;;;;25.50;23.72;99818.91;4494213;31;33113;-69
2022/05/01 10:48:42;;;;;;;;;;;;;;;25.63;23.76;99826.28;4484255;31;33977;-69
2022/05/01 10:51:39;;;;;;;;;;;;;;;25.58;24.11;99829.66;4471914;32;33828;-69
2022/05/01 10:54:17;;;;;;;;;;;;;;;24.89;24.77;99824.47;4481347;31;34558;-68
2022/05/01 10:56:50;;;;;;;;;;;;;;;25.08;24.83;99826.41;4487191;31;33011;-68
2022/05/01 10:59:39;;;;;;;;;;;;;;;25.46;24.72;99825.87;4484024;31;33099;-68
2022/05/01 11:02:24;;;;;;;;;;;;;;;25.66;25.78;99823.13;4492213;31;34298;-69
2022/05/01 11:04:53;;;;;;;;;;;;;;;26.28;24.87;99821.78;4480352;31;32434;-68
2022/05/01 11:07:21;;;;;;;;;;;;;;;26.22;24.45;99811.69;4498489;31;34275;-69
2022/05/01 11:09:50;;;;;;;;;;;;;;;26.24;24.18;99818.66;4481923;31;33271;-73
2022/05/01 11:12:22;;;;;;;;;;;;;;;25.19;24.65;99809.38;4485234;31;34068;-69
2022/05/01 11:14:54;;;;;;;;;;;;;;;25.07;24.90;99811.00;4474509;31;33110;-69
2022/05/01 11:17:34;;;;;;;;;;;;;;;24.61;25.40;99811.72;4496638;31;34959;-68
2022/05/01 11:20:04;;;;;;;;;;;;;;;24.54;25.90;99802.63;4469934;31;32901;-68
2022/05/01 11:22:31;;;;;;;;;;;;;;;25.00;25.31;99804.69;4488077;31;34371;-70
2022/05/01 11:24:59;;;;;;;;;;;;;;;24.26;24.74;99806.25;4482653;31;33484;-69
2022/05/01 11:27:27;;;;;;;;;;;;;;;23.82;24.93;99799.25;4487331;31;33788;-70
2022/05/01 11:30:07;;;;;;;;;;;;;;;24.78;24.13;99796.63;4467285;32;34356;-68
2022/05/01 11:32:47;;;;;;;;;;;;;;;24.92;24.07;99793.94;4484102;31;34213;-68
2022/05/01 11:35:15;;;;;;;;;;;;;;;25.04;24.35;99795.00;4483509;31;33390;-69
2022/05/01 11:37:50;;;;;;;;;;;;;;;24.57;24.13;99791.28;4493185;31;34272;-68
2022/05/01 11:40:22;;;;;;;;;;;;;;;23.75;24.34;99779.22;4496429;31;33033;-69
2022/05/01 11:42:50;;;;;;;;;;;;;;;23.71;24.35;99788.88;4486377;31;34230;-71
2022/05/01 11:45:19;;;;;;;;;;;;;;;23.05;24.78;99786.38;4484447;31;33106;-68
2022/05/01 11:47:47;;;;;;;;;;;;;;;23.41;25.64;99785.47;4492142;31;33930;-68
2022/05/01 11:50:17;;;;;;;;;;;;;;;23.01;26.07;99782.34;4497058;31;32970;-71
2022/05/01 11:52:54;;;;;;;;;;;;;;;23.71;24.66;99770.56;4488075;31;32955;-68
2022/05/01 12:02:24;;;;;;;;;;;;;;;23.21;25.06;99772.47;4485119;31;31927;-68
2022/05/01 12:03:43;;;;;;;;;;;;;;;23.71;26.19;99769.75;4487677;31;33166;-68
2022/05/01 12:06:22;;;;;;;;;;;;;;;23.64;25.95;99766.09;4484929;31;32866;-68
2022/05/01 12:08:50;;;;;;;;;;;;;;;23.43;26.03;99767.81;4498357;31;33943;-68
2022/05/01 12:11:28;;;;;;;;;;;;;;;22.99;26.50;99768.91;4490098;31;35396;-68
2022/05/01 12:14:04;;;;;;;;;;;;;;;23.27;25.96;99773.53;4490694;31;34584;-69
2022/05/01 12:16:32;;;;;;;;;;;;;;;24.21;25.13;99758.69;4483081;31;32291;-68
2022/05/01 12:19:00;;;;;;;;;;;;;;;24.10;25.25;99757.37;4483116;31;34194;-68
2022/05/01 12:21:29;;;;;;;;;;;;;;;24.97;24.68;99750.31;4483867;31;33472;-71
2022/05/01 12:24:03;;;;;;;;;;;;;;;24.57;25.26;99744.78;4486885;31;33071;-68
2022/05/01 12:26:33;;;;;;;;;;;;;;;24.94;25.25;99748.00;4480029;31;32555;-67
2022/05/01 12:29:01;;;;;;;;;;;;;;;24.87;24.63;99743.34;4473139;31;34182;-68
2022/05/01 12:31:29;;;;;;;;;;;;;;;24.60;24.99;99738.88;4478676;31;33930;-67
2022/05/01 12:33:58;;;;;;;;;;;;;;;24.56;23.97;99733.00;4484890;31;32875;-68
2022/05/01 12:36:26;;;;;;;;;;;;;;;24.63;24.76;99728.38;4481770;31;30558;-67
2022/05/01 12:39:01;;;;;;;;;;;;;;;24.35;25.57;99725.72;4468921;32;33533;-69
2022/05/01 12:44:35;;;;;;;;;;;;;;;24.51;25.53;99726.44;4473567;32;34368;-71
2022/05/01 12:47:04;;;;;;;;;;;;;;;23.64;25.90;99728.69;4474490;31;33310;-67
2022/05/01 12:49:32;;;;;;;;;;;;;;;23.98;25.58;99723.44;4468858;31;33049;-67
2022/05/01 12:52:01;;;;;;;;;;;;;;;24.38;25.64;99717.09;4483603;31;33909;-71
2022/05/01 12:54:29;;;;;;;;;;;;;;;24.72;25.63;99717.22;4487746;31;33196;-73
2022/05/01 12:56:57;;;;;;;;;;;;;;;23.62;26.38;99716.25;4494224;31;32256;-68
2022/05/01 12:59:30;;;;;;;;;;;;;;;23.61;26.45;99706.38;4479213;32;32890;-68
2022/05/01 13:02:00;;;;;;;;;;;;;;;23.88;26.20;99691.88;4494419;31;33110;-68
2022/05/01 13:04:29;;;;;;;;;;;;;;;23.88;26.33;99705.53;4487225;31;34537;-69
2022/05/01 13:06:57;;;;;;;;;;;;;;;23.48;27.32;99697.03;4495912;31;32309;-69
2022/05/01 13:09:25;;;;;;;;;;;;;;;22.89;28.18;99708.31;4492200;31;33040;-71
2022/05/01 13:12:00;;;;;;;;;;;;;;;23.52;27.31;99700.22;4493176;31;34741;-69
2022/05/01 13:14:33;;;;;;;;;;;;;;;22.91;27.98;99698.03;4472117;31;34114;-68
2022/05/01 13:17:11;;;;;;;;;;;;;;;24.03;27.48;99688.97;4489167;31;32492;-70
2022/05/01 13:19:41;;;;;;;;;;;;;;;23.78;26.59;99685.06;4487790;31;35180;-69
2022/05/01 13:22:10;;;;;;;;;;;;;;;24.41;25.38;99680.31;4488490;31;34989;-69
2022/05/01 13:24:39;;;;;;;;;;;;;;;24.44;25.44;99673.59;4484057;32;34677;-68
2022/05/01 13:27:08;;;;;;;;;;;;;;;23.77;26.13;99672.47;4485117;32;31881;-68
2022/05/01 13:29:37;;;;;;;;;;;;;;;23.99;26.68;99660.38;4492014;31;33924;-68
2022/05/01 13:32:09;;;;;;;;;;;;;;;23.69;26.85;99659.78;4498438;31;34239;-68
2022/05/01 13:34:37;;;;;;;;;;;;;;;24.55;25.66;99667.50;4487858;31;33786;-68
2022/05/01 13:37:06;;;;;;;;;;;;;;;23.99;26.23;99662.28;4472651;31;31971;-72